createdAt,value
2022-09-16T00:03:54.854Z,14.80
2022-09-16T00:22:36.559Z,16.50
2022-09-16T01:18:39.628Z,5.40
2022-09-16T01:37:20.318Z,4.30
2022-09-16T02:14:40.193Z,18.40
2022-09-16T02:33:20.721Z,13.70
2022-09-16T02:52:07.714Z,18.00
2022-09-16T03:10:42.504Z,9.80
2022-09-16T03:29:24.659Z,16.00
2022-09-16T03:48:06.208Z,13.70
2022-09-16T04:06:47.014Z,11.20
2022-09-16T04:25:28.295Z,13.50
2022-09-16T04:44:08.531Z,8.90
2022-09-16T05:02:50.208Z,21.50
2022-09-16T05:21:31.652Z,14.70
2022-09-16T05:40:12.423Z,16.10
2022-09-16T05:58:53.989Z,8.10
2022-09-16T06:36:16.971Z,7.30
2022-09-16T06:55:00.014Z,6.70
2022-09-16T07:13:42.156Z,5.40
2022-09-16T07:32:24.819Z,5.60
2022-09-16T07:51:05.557Z,5.70
2022-09-16T08:09:51.087Z,7.60
2022-09-16T08:28:39.580Z,8.60
2022-09-16T08:47:14.812Z,19.30
2022-09-16T09:05:55.433Z,9.90
2022-09-16T09:43:23.201Z,8.40
2022-09-16T10:01:59.902Z,5.30
2022-09-16T10:20:39.657Z,6.00
2022-09-16T10:39:25.605Z,3.30
2022-09-16T10:58:04.697Z,4.00
2022-09-16T11:16:45.578Z,5.30
2022-09-16T11:35:26.383Z,3.00
2022-09-16T11:54:08.106Z,3.40
2022-09-16T12:31:25.336Z,2.30
2022-09-16T12:50:04.373Z,1.20
2022-09-16T13:08:43.972Z,2.70
2022-09-16T13:46:09.854Z,0.80
2022-09-16T14:04:48.061Z,1.80
2022-09-16T14:23:26.939Z,1.40
2022-09-16T14:42:04.512Z,3.00
2022-09-16T15:00:45.331Z,1.10
2022-09-16T15:19:29.063Z,0.70
2022-09-16T15:38:08.404Z,0.70
2022-09-16T15:56:48.742Z,0.70
2022-09-16T16:15:24.993Z,1.90
2022-09-16T16:34:04.913Z,1.20
2022-09-16T16:52:51.184Z,3.90
2022-09-16T17:11:25.592Z,3.30
2022-09-16T17:30:07.248Z,1.90
2022-09-16T17:48:44.987Z,1.10
2022-09-16T18:07:24.358Z,1.40
2022-09-16T18:26:04.874Z,3.30
2022-09-16T18:44:46.374Z,2.40
2022-09-16T19:03:26.869Z,14.30
2022-09-16T19:22:08.197Z,2.40
2022-09-16T19:40:49.707Z,3.60
2022-09-16T19:59:37.138Z,1.80
2022-09-16T20:18:12.939Z,2.60
2022-09-16T20:36:54.307Z,1.20
2022-09-16T20:55:34.065Z,1.80
2022-09-16T21:14:16.369Z,3.40
2022-09-16T21:33:00.297Z,1.40
2022-09-16T21:51:39.262Z,1.80
2022-09-16T22:10:21.484Z,1.60
2022-09-16T22:29:01.105Z,1.60
2022-09-16T22:47:42.334Z,3.40
2022-09-16T23:06:23.588Z,2.60
2022-09-16T23:25:04.161Z,1.60
2022-09-16T23:43:45.323Z,1.60
